sensor_id;sensor_type;location;lat;lon;timestamp;pressure;altitude;pressure_sealevel;temperature;humidity
10462;BME280;5278;42.656;23.374;2022-11-15T00:02:11;95231.00;;;7.64;86.86
10462;BME280;5278;42.656;23.374;2022-11-15T00:04:39;95234.16;;;7.58;87.82
10462;BME280;5278;42.656;23.374;2022-11-15T00:07:06;95231.59;;;7.48;87.58
10462;BME280;5278;42.656;23.374;2022-11-15T00:09:33;95223.47;;;7.33;87.55
10462;BME280;5278;42.656;23.374;2022-11-15T00:12:00;95234.78;;;7.23;87.59
10462;BME280;5278;42.656;23.374;2022-11-15T00:14:26;95228.13;;;7.20;88.51
10462;BME280;5278;42.656;23.374;2022-11-15T00:16:53;95230.47;;;7.04;89.21
10462;BME280;5278;42.656;23.374;2022-11-15T00:19:20;95222.03;;;6.92;89.55
10462;BME280;5278;42.656;23.374;2022-11-15T00:21:48;95231.16;;;6.97;89.57
10462;BME280;5278;42.656;23.374;2022-11-15T00:24:15;95231.41;;;6.93;89.29
10462;BME280;5278;42.656;23.374;2022-11-15T00:26:42;95233.34;;;6.91;88.90
10462;BME280;5278;42.656;23.374;2022-11-15T00:29:09;95225.19;;;6.86;88.15
10462;BME280;5278;42.656;23.374;2022-11-15T00:31:36;95218.53;;;6.74;88.19
10462;BME280;5278;42.656;23.374;2022-11-15T00:34:03;95221.78;;;6.67;89.24
10462;BME280;5278;42.656;23.374;2022-11-15T00:36:32;95223.97;;;6.62;89.62
10462;BME280;5278;42.656;23.374;2022-11-15T00:39:03;95207.91;;;6.58;90.61
10462;BME280;5278;42.656;23.374;2022-11-15T00:41:30;95216.22;;;6.62;91.05
10462;BME280;5278;42.656;23.374;2022-11-15T00:43:57;95208.31;;;6.63;91.21
10462;BME280;5278;42.656;23.374;2022-11-15T00:46:24;95212.53;;;6.64;91.49
10462;BME280;5278;42.656;23.374;2022-11-15T00:48:51;95217.28;;;6.59;91.05
10462;BME280;5278;42.656;23.374;2022-11-15T00:51:18;95215.41;;;6.61;92.06
10462;BME280;5278;42.656;23.374;2022-11-15T00:53:45;95209.84;;;6.56;92.33
10462;BME280;5278;42.656;23.374;2022-11-15T00:56:14;95211.19;;;6.51;92.78
10462;BME280;5278;42.656;23.374;2022-11-15T00:58:41;95205.19;;;6.50;92.87
10462;BME280;5278;42.656;23.374;2022-11-15T01:01:09;95209.13;;;6.54;92.57
10462;BME280;5278;42.656;23.374;2022-11-15T01:03:37;95204.25;;;6.51;92.48
10462;BME280;5278;42.656;23.374;2022-11-15T01:06:06;95201.69;;;6.51;91.84
10462;BME280;5278;42.656;23.374;2022-11-15T01:08:33;95204.50;;;6.48;92.12
10462;BME280;5278;42.656;23.374;2022-11-15T01:11:01;95203.16;;;6.54;92.85
10462;BME280;5278;42.656;23.374;2022-11-15T01:13:31;95200.47;;;6.55;92.80
10462;BME280;5278;42.656;23.374;2022-11-15T01:15:59;95205.06;;;6.61;93.16
10462;BME280;5278;42.656;23.374;2022-11-15T01:18:26;95188.50;;;6.54;92.08
10462;BME280;5278;42.656;23.374;2022-11-15T01:20:53;95201.81;;;6.59;91.24
10462;BME280;5278;42.656;23.374;2022-11-15T01:23:19;95201.81;;;6.59;90.28
10462;BME280;5278;42.656;23.374;2022-11-15T01:25:46;95198.00;;;6.54;90.96
10462;BME280;5278;42.656;23.374;2022-11-15T01:28:14;95195.28;;;6.45;91.71
10462;BME280;5278;42.656;23.374;2022-11-15T01:30:42;95198.94;;;6.43;91.64
10462;BME280;5278;42.656;23.374;2022-11-15T01:33:09;95201.28;;;6.46;91.27
10462;BME280;5278;42.656;23.374;2022-11-15T01:35:38;95190.94;;;6.46;91.82
10462;BME280;5278;42.656;23.374;2022-11-15T01:38:06;95202.75;;;6.39;92.67
10462;BME280;5278;42.656;23.374;2022-11-15T01:40:33;95202.34;;;6.34;92.46
10462;BME280;5278;42.656;23.374;2022-11-15T01:43:22;95198.13;;;6.33;91.79
10462;BME280;5278;42.656;23.374;2022-11-15T01:45:53;95196.91;;;6.27;91.25
10462;BME280;5278;42.656;23.374;2022-11-15T01:48:27;95200.69;;;6.23;91.31
10462;BME280;5278;42.656;23.374;2022-11-15T01:50:57;95197.16;;;6.24;92.67
10462;BME280;5278;42.656;23.374;2022-11-15T01:53:25;95192.81;;;6.25;94.08
10462;BME280;5278;42.656;23.374;2022-11-15T01:55:53;95191.47;;;6.30;94.83
10462;BME280;5278;42.656;23.374;2022-11-15T01:58:20;95186.44;;;6.29;94.65
10462;BME280;5278;42.656;23.374;2022-11-15T02:00:47;95187.25;;;6.29;95.09
10462;BME280;5278;42.656;23.374;2022-11-15T02:03:16;95185.38;;;6.31;95.87
10462;BME280;5278;42.656;23.374;2022-11-15T02:05:43;95191.19;;;6.33;95.16
10462;BME280;5278;42.656;23.374;2022-11-15T02:08:11;95194.59;;;6.34;95.20
10462;BME280;5278;42.656;23.374;2022-11-15T02:10:45;95189.03;;;6.29;94.00
10462;BME280;5278;42.656;23.374;2022-11-15T02:13:13;95191.19;;;6.24;92.89
10462;BME280;5278;42.656;23.374;2022-11-15T02:15:48;95190.09;;;6.17;92.22
10462;BME280;5278;42.656;23.374;2022-11-15T02:18:27;95190.34;;;6.14;91.72
10462;BME280;5278;42.656;23.374;2022-11-15T02:21:04;95190.09;;;6.07;91.85
10462;BME280;5278;42.656;23.374;2022-11-15T02:24:06;95189.81;;;6.00;92.22
10462;BME280;5278;42.656;23.374;2022-11-15T02:26:55;95186.28;;;6.01;92.58
10462;BME280;5278;42.656;23.374;2022-11-15T02:29:37;95191.56;;;6.00;92.41
10462;BME280;5278;42.656;23.374;2022-11-15T02:32:18;95189.69;;;6.02;91.79
10462;BME280;5278;42.656;23.374;2022-11-15T02:34:50;95180.69;;;5.96;91.39
10462;BME280;5278;42.656;23.374;2022-11-15T02:37:29;95186.69;;;5.97;91.41
10462;BME280;5278;42.656;23.374;2022-11-15T02:40:05;95177.97;;;5.98;90.89
10462;BME280;5278;42.656;23.374;2022-11-15T02:42:38;95180.13;;;5.93;91.31
10462;BME280;5278;42.656;23.374;2022-11-15T02:45:27;95180.91;;;5.84;91.84
10462;BME280;5278;42.656;23.374;2022-11-15T02:47:58;95167.47;;;5.80;92.69
10462;BME280;5278;42.656;23.374;2022-11-15T02:50:29;95177.25;;;5.86;93.18
10462;BME280;5278;42.656;23.374;2022-11-15T02:52:58;95181.72;;;5.84;92.52
10462;BME280;5278;42.656;23.374;2022-11-15T02:55:27;95188.69;;;5.93;92.34
10462;BME280;5278;42.656;23.374;2022-11-15T02:58:19;95183.81;;;5.90;92.14
10462;BME280;5278;42.656;23.374;2022-11-15T03:00:51;95185.09;;;5.85;92.81
10462;BME280;5278;42.656;23.374;2022-11-15T03:03:48;95180.78;;;5.85;93.46
10462;BME280;5278;42.656;23.374;2022-11-15T03:06:24;95186.94;;;5.94;93.07
10462;BME280;5278;42.656;23.374;2022-11-15T03:08:57;95182.59;;;5.94;92.91
10462;BME280;5278;42.656;23.374;2022-11-15T03:11:29;95177.81;;;5.90;93.30
10462;BME280;5278;42.656;23.374;2022-11-15T03:14:02;95177.84;;;5.99;92.99
10462;BME280;5278;42.656;23.374;2022-11-15T03:16:37;95186.53;;;5.98;92.02
10462;BME280;5278;42.656;23.374;2022-11-15T03:19:13;95179.47;;;5.91;90.98
10462;BME280;5278;42.656;23.374;2022-11-15T03:21:40;95183.25;;;5.87;90.67
10462;BME280;5278;42.656;23.374;2022-11-15T03:24:08;95184.06;;;5.87;90.50
10462;BME280;5278;42.656;23.374;2022-11-15T03:26:38;95177.66;;;5.82;90.86
10462;BME280;5278;42.656;23.374;2022-11-15T03:29:09;95175.75;;;5.84;90.75
10462;BME280;5278;42.656;23.374;2022-11-15T03:31:42;95173.97;;;5.84;91.00
10462;BME280;5278;42.656;23.374;2022-11-15T03:34:20;95164.25;;;5.88;91.27
10462;BME280;5278;42.656;23.374;2022-11-15T03:36:50;95168.06;;;5.93;91.43
10462;BME280;5278;42.656;23.374;2022-11-15T03:39:19;95166.72;;;5.99;91.35
10462;BME280;5278;42.656;23.374;2022-11-15T03:42:04;95162.50;;;5.98;91.63
10462;BME280;5278;42.656;23.374;2022-11-15T03:44:40;95154.13;;;6.05;91.19
10462;BME280;5278;42.656;23.374;2022-11-15T03:47:12;95154.81;;;6.08;91.12
10462;BME280;5278;42.656;23.374;2022-11-15T03:49:46;95162.97;;;6.13;91.08
10462;BME280;5278;42.656;23.374;2022-11-15T03:52:17;95155.59;;;6.18;90.88
10462;BME280;5278;42.656;23.374;2022-11-15T03:54:49;95152.06;;;6.19;90.54
10462;BME280;5278;42.656;23.374;2022-11-15T03:57:17;95149.91;;;6.14;90.18
10462;BME280;5278;42.656;23.374;2022-11-15T03:59:44;95157.53;;;6.16;90.42
10462;BME280;5278;42.656;23.374;2022-11-15T04:02:11;95152.06;;;6.19;89.78
10462;BME280;5278;42.656;23.374;2022-11-15T04:04:38;95153.44;;;6.13;89.53
10462;BME280;5278;42.656;23.374;2022-11-15T04:07:06;95147.72;;;6.10;89.23
10462;BME280;5278;42.656;23.374;2022-11-15T04:09:33;95142.31;;;6.13;89.55
10462;BME280;5278;42.656;23.374;2022-11-15T04:12:20;95149.66;;;6.08;90.05
10462;BME280;5278;42.656;23.374;2022-11-15T04:14:56;95146.66;;;6.02;89.93
10462;BME280;5278;42.656;23.374;2022-11-15T04:17:34;95148.13;;;5.95;89.44
10462;BME280;5278;42.656;23.374;2022-11-15T04:20:02;95147.38;;;5.84;89.67
10462;BME280;5278;42.656;23.374;2022-11-15T04:22:58;95145.34;;;5.78;89.39
10462;BME280;5278;42.656;23.374;2022-11-15T04:25:43;95133.91;;;5.61;89.93
10462;BME280;5278;42.656;23.374;2022-11-15T04:28:10;95124.69;;;5.28;90.88
10462;BME280;5278;42.656;23.374;2022-11-15T04:30:38;95125.44;;;5.09;93.07
10462;BME280;5278;42.656;23.374;2022-11-15T04:33:05;95133.41;;;4.97;94.76
10462;BME280;5278;42.656;23.374;2022-11-15T04:35:31;95143.88;;;4.84;95.14
10462;BME280;5278;42.656;23.374;2022-11-15T04:38:00;95144.03;;;4.83;96.14
10462;BME280;5278;42.656;23.374;2022-11-15T04:40:27;95154.31;;;4.83;96.97
10462;BME280;5278;42.656;23.374;2022-11-15T04:42:53;95143.44;;;4.79;97.57
10462;BME280;5278;42.656;23.374;2022-11-15T04:45:20;95130.19;;;4.84;98.61
10462;BME280;5278;42.656;23.374;2022-11-15T04:47:47;95132.31;;;4.99;99.14
10462;BME280;5278;42.656;23.374;2022-11-15T04:50:15;95143.72;;;5.06;99.66
10462;BME280;5278;42.656;23.374;2022-11-15T04:52:49;95137.66;;;5.07;99.84
10462;BME280;5278;42.656;23.374;2022-11-15T04:55:18;95135.66;;;5.20;100.00
10462;BME280;5278;42.656;23.374;2022-11-15T04:57:45;95135.66;;;5.20;100.00
10462;BME280;5278;42.656;23.374;2022-11-15T05:00:14;95139.09;;;5.31;100.00
10462;BME280;5278;42.656;23.374;2022-11-15T05:02:41;95139.94;;;5.41;99.45
10462;BME280;5278;42.656;23.374;2022-11-15T05:05:26;95142.94;;;5.46;99.21
10462;BME280;5278;42.656;23.374;2022-11-15T05:07:53;95146.06;;;5.49;98.82
10462;BME280;5278;42.656;23.374;2022-11-15T05:10:21;95144.31;;;5.50;98.64
10462;BME280;5278;42.656;23.374;2022-11-15T05:12:48;95154.63;;;5.50;98.71
10462;BME280;5278;42.656;23.374;2022-11-15T05:15:15;95149.63;;;5.58;98.82
10462;BME280;5278;42.656;23.374;2022-11-15T05:17:42;95145.97;;;5.60;98.90
10462;BME280;5278;42.656;23.374;2022-11-15T05:20:10;95136.22;;;5.64;99.40
10462;BME280;5278;42.656;23.374;2022-11-15T05:22:37;95141.97;;;5.77;99.74
10462;BME280;5278;42.656;23.374;2022-11-15T05:25:05;95144.38;;;5.69;99.75
10462;BME280;5278;42.656;23.374;2022-11-15T05:27:34;95137.84;;;5.65;100.00
10462;BME280;5278;42.656;23.374;2022-11-15T05:30:01;95145.84;;;5.62;100.00
10462;BME280;5278;42.656;23.374;2022-11-15T05:32:28;95156.97;;;5.62;100.00
10462;BME280;5278;42.656;23.374;2022-11-15T05:34:55;95144.94;;;5.73;100.00
10462;BME280;5278;42.656;23.374;2022-11-15T05:37:22;95144.97;;;5.82;100.00
10462;BME280;5278;42.656;23.374;2022-11-15T05:39:49;95142.44;;;5.92;100.00
10462;BME280;5278;42.656;23.374;2022-11-15T05:42:16;95138.09;;;5.92;100.00
10462;BME280;5278;42.656;23.374;2022-11-15T05:44:48;95142.69;;;5.98;100.00
10462;BME280;5278;42.656;23.374;2022-11-15T05:47:19;95142.69;;;6.08;100.00
10462;BME280;5278;42.656;23.374;2022-11-15T05:49:48;95143.00;;;6.15;100.00
10462;BME280;5278;42.656;23.374;2022-11-15T05:52:22;95145.97;;;6.20;100.00
10462;BME280;5278;42.656;23.374;2022-11-15T05:54:52;95149.50;;;6.19;99.89
10462;BME280;5278;42.656;23.374;2022-11-15T05:57:19;95149.38;;;6.20;99.08
10462;BME280;5278;42.656;23.374;2022-11-15T05:59:48;95143.81;;;6.05;98.29
10462;BME280;5278;42.656;23.374;2022-11-15T06:02:15;95145.25;;;5.98;98.77
10462;BME280;5278;42.656;23.374;2022-11-15T06:04:41;95150.28;;;5.90;99.34
10462;BME280;5278;42.656;23.374;2022-11-15T06:07:08;95138.69;;;5.75;99.19
10462;BME280;5278;42.656;23.374;2022-11-15T06:09:35;95153.59;;;5.62;99.98
10462;BME280;5278;42.656;23.374;2022-11-15T06:12:03;95152.31;;;5.47;100.00
10462;BME280;5278;42.656;23.374;2022-11-15T06:14:30;95154.91;;;5.47;100.00
10462;BME280;5278;42.656;23.374;2022-11-15T06:16:58;95154.47;;;5.42;100.00
10462;BME280;5278;42.656;23.374;2022-11-15T06:19:25;95146.72;;;5.32;100.00
10462;BME280;5278;42.656;23.374;2022-11-15T06:21:52;95153.09;;;5.38;100.00
10462;BME280;5278;42.656;23.374;2022-11-15T06:24:19;95111.50;;;5.12;100.00
10462;BME280;5278;42.656;23.374;2022-11-15T06:26:45;95148.00;;;5.57;100.00
10462;BME280;5278;42.656;23.374;2022-11-15T06:29:12;95152.00;;;5.80;100.00
10462;BME280;5278;42.656;23.374;2022-11-15T06:31:39;95153.56;;;5.92;100.00
10462;BME280;5278;42.656;23.374;2022-11-15T06:34:07;95146.25;;;6.07;99.37
10462;BME280;5278;42.656;23.374;2022-11-15T06:36:35;95152.78;;;6.21;98.13
10462;BME280;5278;42.656;23.374;2022-11-15T06:39:02;95147.91;;;6.27;97.13
10462;BME280;5278;42.656;23.374;2022-11-15T06:41:29;95148.16;;;6.34;96.03
10462;BME280;5278;42.656;23.374;2022-11-15T06:43:56;95145.31;;;6.37;96.20
10462;BME280;5278;42.656;23.374;2022-11-15T06:46:23;95130.09;;;6.43;95.85
10462;BME280;5278;42.656;23.374;2022-11-15T06:48:50;95146.13;;;6.47;95.29
10462;BME280;5278;42.656;23.374;2022-11-15T06:51:19;95142.97;;;6.53;94.62
10462;BME280;5278;42.656;23.374;2022-11-15T06:53:46;95136.63;;;6.57;94.44
10462;BME280;5278;42.656;23.374;2022-11-15T06:56:13;95146.94;;;6.57;94.42
10462;BME280;5278;42.656;23.374;2022-11-15T06:58:40;95153.56;;;6.69;93.96
10462;BME280;5278;42.656;23.374;2022-11-15T07:01:08;95148.91;;;6.82;94.69
10462;BME280;5278;42.656;23.374;2022-11-15T07:03:36;95139.00;;;6.97;94.09
10462;BME280;5278;42.656;23.374;2022-11-15T07:06:04;95146.56;;;7.08;93.16
10462;BME280;5278;42.656;23.374;2022-11-15T07:08:32;95141.78;;;7.13;92.76
10462;BME280;5278;42.656;23.374;2022-11-15T07:11:01;95140.03;;;7.14;92.47
10462;BME280;5278;42.656;23.374;2022-11-15T07:13:29;95136.09;;;7.10;93.04
10462;BME280;5278;42.656;23.374;2022-11-15T07:15:58;95139.22;;;7.13;92.75
10462;BME280;5278;42.656;23.374;2022-11-15T07:18:28;95135.16;;;7.11;93.02
10462;BME280;5278;42.656;23.374;2022-11-15T07:20:55;95123.47;;;7.07;93.40
10462;BME280;5278;42.656;23.374;2022-11-15T07:23:22;95133.38;;;7.11;93.48
10462;BME280;5278;42.656;23.374;2022-11-15T07:25:50;95130.63;;;7.13;93.71
10462;BME280;5278;42.656;23.374;2022-11-15T07:28:17;95123.97;;;7.20;93.72
10462;BME280;5278;42.656;23.374;2022-11-15T07:30:44;95127.19;;;7.31;93.28
10462;BME280;5278;42.656;23.374;2022-11-15T07:33:11;95126.22;;;7.32;92.73
10462;BME280;5278;42.656;23.374;2022-11-15T07:35:38;95135.00;;;7.49;92.23
10462;BME280;5278;42.656;23.374;2022-11-15T07:38:04;95135.47;;;7.62;91.88
10462;BME280;5278;42.656;23.374;2022-11-15T07:40:32;95132.63;;;7.65;91.38
10462;BME280;5278;42.656;23.374;2022-11-15T07:43:01;95140.63;;;7.72;90.92
10462;BME280;5278;42.656;23.374;2022-11-15T07:45:29;95137.44;;;7.78;90.39
10462;BME280;5278;42.656;23.374;2022-11-15T07:47:56;95122.91;;;7.77;89.34
10462;BME280;5278;42.656;23.374;2022-11-15T07:50:23;95125.88;;;7.72;89.23
10462;BME280;5278;42.656;23.374;2022-11-15T07:52:53;95105.03;;;7.56;89.68
10462;BME280;5278;42.656;23.374;2022-11-15T07:55:21;95124.72;;;7.67;89.78
10462;BME280;5278;42.656;23.374;2022-11-15T07:57:48;95123.69;;;7.77;89.74
10462;BME280;5278;42.656;23.374;2022-11-15T08:00:19;95126.81;;;7.81;89.60
10462;BME280;5278;42.656;23.374;2022-11-15T08:02:45;95118.69;;;7.94;89.60
10462;BME280;5278;42.656;23.374;2022-11-15T08:05:12;95124.84;;;8.10;89.78
10462;BME280;5278;42.656;23.374;2022-11-15T08:07:39;95122.09;;;8.12;88.46
10462;BME280;5278;42.656;23.374;2022-11-15T08:10:07;95128.84;;;8.22;88.28
10462;BME280;5278;42.656;23.374;2022-11-15T08:12:34;95121.03;;;8.32;87.51
10462;BME280;5278;42.656;23.374;2022-11-15T08:15:01;95114.19;;;8.41;86.93
10462;BME280;5278;42.656;23.374;2022-11-15T08:17:31;95116.22;;;8.55;86.05
10462;BME280;5278;42.656;23.374;2022-11-15T08:19:59;95118.88;;;8.63;84.90
10462;BME280;5278;42.656;23.374;2022-11-15T08:22:26;95122.94;;;8.66;85.00
10462;BME280;5278;42.656;23.374;2022-11-15T08:24:52;95114.06;;;8.68;85.23
10462;BME280;5278;42.656;23.374;2022-11-15T08:27:19;95120.81;;;8.87;84.40
10462;BME280;5278;42.656;23.374;2022-11-15T08:29:48;95120.56;;;8.98;84.04
10462;BME280;5278;42.656;23.374;2022-11-15T08:32:15;95110.41;;;9.04;83.16
10462;BME280;5278;42.656;23.374;2022-11-15T08:34:44;95117.13;;;9.15;82.94
10462;BME280;5278;42.656;23.374;2022-11-15T08:37:11;95120.00;;;9.12;82.54
10462;BME280;5278;42.656;23.374;2022-11-15T08:39:38;95115.19;;;9.17;82.96
10462;BME280;5278;42.656;23.374;2022-11-15T08:42:05;95106.44;;;9.18;82.99
10462;BME280;5278;42.656;23.374;2022-11-15T08:44:32;95098.56;;;9.28;82.46
10462;BME280;5278;42.656;23.374;2022-11-15T08:46:58;95080.84;;;10.15;100.00
10462;BME280;5278;42.656;23.374;2022-11-15T08:49:25;95080.03;;;12.66;97.23
10462;BME280;5278;42.656;23.374;2022-11-15T08:51:53;95077.56;;;13.90;87.15
10462;BME280;5278;42.656;23.374;2022-11-15T08:54:20;95071.59;;;14.96;73.25
10462;BME280;5278;42.656;23.374;2022-11-15T08:56:47;95073.97;;;15.94;68.09
10462;BME280;5278;42.656;23.374;2022-11-15T08:59:14;95063.22;;;16.50;58.57
10462;BME280;5278;42.656;23.374;2022-11-15T09:01:41;95050.97;;;17.09;57.43
10462;BME280;5278;42.656;23.374;2022-11-15T09:04:07;95046.75;;;17.08;51.20
10462;BME280;5278;42.656;23.374;2022-11-15T09:06:34;95041.03;;;16.32;50.98
10462;BME280;5278;42.656;23.374;2022-11-15T09:09:03;95053.53;;;15.70;52.26
10462;BME280;5278;42.656;23.374;2022-11-15T09:11:30;95058.84;;;14.86;54.94
10462;BME280;5278;42.656;23.374;2022-11-15T09:13:57;95048.22;;;14.45;56.09
10462;BME280;5278;42.656;23.374;2022-11-15T09:16:24;95037.56;;;14.04;57.89
10462;BME280;5278;42.656;23.374;2022-11-15T09:18:51;95038.81;;;13.72;59.62
10462;BME280;5278;42.656;23.374;2022-11-15T09:21:18;95043.34;;;13.49;60.72
10462;BME280;5278;42.656;23.374;2022-11-15T09:23:46;95042.91;;;13.16;61.91
10462;BME280;5278;42.656;23.374;2022-11-15T09:26:14;95043.78;;;13.09;62.16
10462;BME280;5278;42.656;23.374;2022-11-15T09:28:41;95035.84;;;12.87;63.15
10462;BME280;5278;42.656;23.374;2022-11-15T09:31:08;95034.75;;;12.97;63.14
10462;BME280;5278;42.656;23.374;2022-11-15T09:33:35;95026.13;;;12.96;63.57
10462;BME280;5278;42.656;23.374;2022-11-15T09:36:04;95022.63;;;13.04;63.25
10462;BME280;5278;42.656;23.374;2022-11-15T09:38:31;95033.19;;;13.25;62.99
10462;BME280;5278;42.656;23.374;2022-11-15T09:41:16;95012.22;;;13.18;62.99
10462;BME280;5278;42.656;23.374;2022-11-15T09:43:57;95009.53;;;13.12;63.09
10462;BME280;5278;42.656;23.374;2022-11-15T09:46:34;95008.78;;;13.32;62.89
10462;BME280;5278;42.656;23.374;2022-11-15T09:49:06;95007.25;;;13.38;62.87
10462;BME280;5278;42.656;23.374;2022-11-15T09:51:37;95003.00;;;13.52;62.41
10462;BME280;5278;42.656;23.374;2022-11-15T09:54:20;94999.50;;;13.80;61.70
10462;BME280;5278;42.656;23.374;2022-11-15T09:56:50;94993.56;;;14.29;59.04
10462;BME280;5278;42.656;23.374;2022-11-15T09:59:41;94999.88;;;14.84;56.56
10462;BME280;5278;42.656;23.374;2022-11-15T10:02:27;94979.97;;;15.24;55.09
10462;BME280;5278;42.656;23.374;2022-11-15T10:04:59;94974.38;;;15.94;53.66
10462;BME280;5278;42.656;23.374;2022-11-15T10:07:31;94973.19;;;17.21;50.25
10462;BME280;5278;42.656;23.374;2022-11-15T10:10:03;94961.34;;;18.33;46.58
10462;BME280;5278;42.656;23.374;2022-11-15T10:12:32;94951.00;;;19.06;43.97
10462;BME280;5278;42.656;23.374;2022-11-15T10:15:02;94948.44;;;19.54;41.90
10462;BME280;5278;42.656;23.374;2022-11-15T10:17:57;94940.19;;;20.51;39.58
10462;BME280;5278;42.656;23.374;2022-11-15T10:20:29;94936.88;;;21.02;38.10
10462;BME280;5278;42.656;23.374;2022-11-15T10:23:00;94939.16;;;21.11;37.56
10462;BME280;5278;42.656;23.374;2022-11-15T10:25:29;94934.59;;;21.58;36.87
10462;BME280;5278;42.656;23.374;2022-11-15T10:27:59;94936.81;;;21.89;36.25
10462;BME280;5278;42.656;23.374;2022-11-15T10:30:33;94930.78;;;22.22;35.42
10462;BME280;5278;42.656;23.374;2022-11-15T10:33:11;94921.50;;;22.53;34.74
10462;BME280;5278;42.656;23.374;2022-11-15T10:35:38;94913.75;;;22.46;34.69
10462;BME280;5278;42.656;23.374;2022-11-15T10:38:06;94911.59;;;21.98;34.97
10462;BME280;5278;42.656;23.374;2022-11-15T10:40:34;94914.84;;;21.60;36.08
10462;BME280;5278;42.656;23.374;2022-11-15T10:43:14;94899.09;;;21.54;36.43
10462;BME280;5278;42.656;23.374;2022-11-15T10:45:41;94886.38;;;21.67;36.32
10462;BME280;5278;42.656;23.374;2022-11-15T10:48:23;94897.81;;;21.84;35.87
10462;BME280;5278;42.656;23.374;2022-11-15T10:50:51;94886.16;;;21.97;35.46
10462;BME280;5278;42.656;23.374;2022-11-15T10:53:29;94890.22;;;22.16;35.50
10462;BME280;5278;42.656;23.374;2022-11-15T10:56:03;94887.75;;;22.26;35.16
10462;BME280;5278;42.656;23.374;2022-11-15T10:58:35;94887.16;;;22.24;35.56
10462;BME280;5278;42.656;23.374;2022-11-15T11:01:12;94876.56;;;22.24;35.93
10462;BME280;5278;42.656;23.374;2022-11-15T11:03:41;94876.97;;;22.16;35.83
10462;BME280;5278;42.656;23.374;2022-11-15T11:06:10;94870.44;;;22.07;35.41
10462;BME280;5278;42.656;23.374;2022-11-15T11:08:38;94867.03;;;21.78;35.91
10462;BME280;5278;42.656;23.374;2022-11-15T11:11:07;94860.56;;;21.58;36.70
10462;BME280;5278;42.656;23.374;2022-11-15T11:13:37;94852.91;;;21.16;37.17
10462;BME280;5278;42.656;23.374;2022-11-15T11:16:19;94848.19;;;20.95;37.61
10462;BME280;5278;42.656;23.374;2022-11-15T11:18:51;94845.94;;;20.75;38.14
10462;BME280;5278;42.656;23.374;2022-11-15T11:21:26;94849.94;;;20.78;38.20
10462;BME280;5278;42.656;23.374;2022-11-15T11:24:02;94847.44;;;20.71;38.43
10462;BME280;5278;42.656;23.374;2022-11-15T11:26:41;94843.41;;;20.69;38.42
10462;BME280;5278;42.656;23.374;2022-11-15T11:29:26;94830.56;;;20.60;38.59
10462;BME280;5278;42.656;23.374;2022-11-15T11:32:01;94835.59;;;20.74;38.39
10462;BME280;5278;42.656;23.374;2022-11-15T11:34:48;94819.78;;;20.62;38.53
10462;BME280;5278;42.656;23.374;2022-11-15T11:37:20;94809.75;;;20.17;39.31
10462;BME280;5278;42.656;23.374;2022-11-15T11:39:59;94807.81;;;20.01;39.56
10462;BME280;5278;42.656;23.374;2022-11-15T11:42:36;94802.22;;;19.56;40.85
10462;BME280;5278;42.656;23.374;2022-11-15T11:45:15;94793.16;;;19.52;40.89
10462;BME280;5278;42.656;23.374;2022-11-15T11:47:47;94792.69;;;19.55;40.98
10462;BME280;5278;42.656;23.374;2022-11-15T11:50:21;94787.47;;;19.37;41.15
10462;BME280;5278;42.656;23.374;2022-11-15T11:52:56;94790.38;;;19.17;41.86
10462;BME280;5278;42.656;23.374;2022-11-15T11:55:27;94795.78;;;19.04;41.93
10462;BME280;5278;42.656;23.374;2022-11-15T11:58:03;94782.00;;;18.90;42.53
10462;BME280;5278;42.656;23.374;2022-11-15T12:00:35;94776.06;;;18.95;42.66
10462;BME280;5278;42.656;23.374;2022-11-15T12:03:09;94780.97;;;18.91;42.66
10462;BME280;5278;42.656;23.374;2022-11-15T12:05:42;94773.66;;;18.75;42.91
10462;BME280;5278;42.656;23.374;2022-11-15T12:08:22;94769.53;;;18.68;43.29
10462;BME280;5278;42.656;23.374;2022-11-15T12:10:55;94763.16;;;18.57;43.41
10462;BME280;5278;42.656;23.374;2022-11-15T12:13:26;94754.84;;;18.35;43.96
10462;BME280;5278;42.656;23.374;2022-11-15T12:16:05;94759.22;;;18.05;44.93
10462;BME280;5278;42.656;23.374;2022-11-15T12:18:33;94757.03;;;17.77;45.71
10462;BME280;5278;42.656;23.374;2022-11-15T12:21:05;94761.69;;;17.44;46.63
10462;BME280;5278;42.656;23.374;2022-11-15T12:23:40;94760.63;;;17.27;47.32
10462;BME280;5278;42.656;23.374;2022-11-15T12:26:14;94758.19;;;17.25;47.59
10462;BME280;5278;42.656;23.374;2022-11-15T12:28:46;94754.09;;;17.04;48.16
10462;BME280;5278;42.656;23.374;2022-11-15T12:31:21;94740.78;;;16.99;48.44
10462;BME280;5278;42.656;23.374;2022-11-15T12:33:49;94740.59;;;16.94;48.49
10462;BME280;5278;42.656;23.374;2022-11-15T12:36:35;94728.22;;;16.70;49.27
10462;BME280;5278;42.656;23.374;2022-11-15T12:39:04;94736.13;;;16.63;49.45
10462;BME280;5278;42.656;23.374;2022-11-15T12:41:32;94732.72;;;16.50;50.14
10462;BME280;5278;42.656;23.374;2022-11-15T12:44:00;94727.78;;;16.28;50.62
10462;BME280;5278;42.656;23.374;2022-11-15T12:47:00;94727.44;;;15.92;52.22
10462;BME280;5278;42.656;23.374;2022-11-15T12:49:45;94723.84;;;15.60;53.43
10462;BME280;5278;42.656;23.374;2022-11-15T12:52:13;94726.50;;;15.54;54.12
10462;BME280;5278;42.656;23.374;2022-11-15T12:54:59;94728.03;;;15.35;55.16
10462;BME280;5278;42.656;23.374;2022-11-15T12:57:35;94724.63;;;15.08;55.89
10462;BME280;5278;42.656;23.374;2022-11-15T13:03:27;94718.72;;;14.86;57.08
10462;BME280;5278;42.656;23.374;2022-11-15T13:06:06;94711.47;;;14.69;57.80
10462;BME280;5278;42.656;23.374;2022-11-15T13:08:45;94706.53;;;14.39;59.06
10462;BME280;5278;42.656;23.374;2022-11-15T13:11:41;94713.91;;;14.29;60.21
10462;BME280;5278;42.656;23.374;2022-11-15T13:17:29;94703.69;;;14.00;61.18
10462;BME280;5278;42.656;23.374;2022-11-15T13:22:44;94708.78;;;13.73;62.80
10462;BME280;5278;42.656;23.374;2022-11-15T13:28:37;94686.50;;;13.43;64.52
10462;BME280;5278;42.656;23.374;2022-11-15T13:31:20;94691.06;;;13.34;65.43
10462;BME280;5278;42.656;23.374;2022-11-15T13:33:48;94689.44;;;13.33;66.06
10462;BME280;5278;42.656;23.374;2022-11-15T13:36:20;94710.25;;;13.27;66.29
10462;BME280;5278;42.656;23.374;2022-11-15T13:38:55;94697.72;;;13.16;66.89
10462;BME280;5278;42.656;23.374;2022-11-15T13:41:25;94661.31;;;12.86;67.41